createdAt,value
2022-09-27T00:00:59.197Z,13.45
2022-09-27T00:02:01.030Z,13.95
2022-09-27T00:03:02.814Z,13.63
2022-09-27T00:04:04.474Z,13.98
2022-09-27T00:05:06.397Z,14.15
2022-09-27T00:06:17.061Z,14.07
2022-09-27T00:07:18.644Z,13.82
2022-09-27T00:08:20.229Z,14.10
2022-09-27T00:09:21.857Z,13.68
2022-09-27T00:10:23.630Z,13.38
2022-09-27T00:11:32.565Z,14.13
2022-09-27T00:12:34.777Z,13.73
2022-09-27T00:13:36.349Z,13.57
2022-09-27T00:14:37.929Z,13.15
2022-09-27T00:15:39.511Z,13.40
2022-09-27T00:16:42.193Z,13.20
2022-09-27T00:17:43.833Z,13.90
2022-09-27T00:18:45.414Z,13.93
2022-09-27T00:19:46.949Z,14.40
2022-09-27T00:20:48.522Z,14.57
2022-09-27T00:21:50.346Z,14.35
2022-09-27T00:22:51.950Z,14.85
2022-09-27T00:23:53.612Z,13.83
2022-09-27T00:24:55.205Z,14.15
2022-09-27T00:25:57.606Z,14.50
2022-09-27T00:26:59.481Z,14.50
2022-09-27T00:28:01.203Z,14.75
2022-09-27T00:29:03.053Z,14.80
2022-09-27T00:30:05.020Z,14.32
2022-09-27T00:31:15.013Z,15.10
2022-09-27T00:32:16.701Z,16.13
2022-09-27T00:33:18.288Z,16.08
2022-09-27T00:34:21.948Z,16.07
2022-09-27T00:35:23.509Z,15.98
2022-09-27T00:36:26.010Z,17.65
2022-09-27T00:37:27.768Z,16.92
2022-09-27T00:38:29.329Z,17.42
2022-09-27T00:39:30.917Z,16.73
2022-09-27T00:40:32.879Z,17.13
2022-09-27T00:41:35.700Z,17.27
2022-09-27T00:42:37.280Z,16.55
2022-09-27T00:43:59.018Z,16.90
2022-09-27T00:45:01.691Z,14.77
2022-09-27T00:46:03.375Z,15.93
2022-09-27T00:47:28.172Z,16.45
2022-09-27T00:48:31.489Z,16.15
2022-09-27T00:49:43.730Z,15.43
2022-09-27T00:50:46.926Z,16.55
2022-09-27T00:51:49.999Z,16.48
2022-09-27T00:53:14.022Z,16.95
2022-09-27T00:54:15.567Z,16.27
2022-09-27T00:55:19.483Z,16.52
2022-09-27T00:56:23.305Z,15.87
2022-09-27T00:57:24.940Z,15.43
2022-09-27T00:58:29.296Z,15.93
2022-09-27T00:59:32.419Z,15.05
2022-09-27T01:00:34.443Z,15.43
2022-09-27T01:01:36.306Z,15.55
2022-09-27T01:02:38.932Z,15.73
2022-09-27T01:03:49.891Z,16.60
2022-09-27T01:04:51.505Z,15.18
2022-09-27T01:05:53.324Z,16.88
2022-09-27T01:06:54.958Z,17.17
2022-09-27T01:07:56.976Z,16.23
2022-09-27T01:08:58.533Z,15.95
2022-09-27T01:10:00.091Z,14.70
2022-09-27T01:11:32.635Z,17.17
2022-09-27T01:13:05.464Z,16.15
2022-09-27T01:14:43.887Z,16.20
2022-09-27T01:16:08.818Z,15.75
2022-09-27T01:17:44.652Z,16.13
2022-09-27T01:19:01.241Z,14.45
2022-09-27T01:20:31.413Z,14.60
2022-09-27T01:21:43.762Z,13.43
2022-09-27T01:23:20.586Z,14.70
2022-09-27T01:24:59.402Z,14.35
2022-09-27T01:26:14.581Z,12.82
2022-09-27T01:27:37.180Z,14.10
2022-09-27T01:29:00.825Z,14.07
2022-09-27T01:30:25.608Z,14.70
2022-09-27T01:31:38.410Z,13.52
2022-09-27T01:33:02.461Z,15.48
2022-09-27T01:34:05.224Z,12.93
2022-09-27T01:35:16.474Z,13.45
2022-09-27T01:36:28.037Z,15.23
2022-09-27T01:37:35.213Z,15.75
2022-09-27T01:38:45.744Z,14.65
2022-09-27T01:40:09.438Z,14.98
2022-09-27T01:41:35.337Z,14.70
2022-09-27T01:42:48.396Z,14.65
2022-09-27T01:44:10.945Z,15.07
2022-09-27T01:45:31.484Z,14.48
2022-09-27T01:46:39.576Z,14.63
2022-09-27T01:47:49.798Z,16.00
2022-09-27T01:48:51.430Z,15.32
2022-09-27T01:50:06.832Z,15.80
2022-09-27T01:51:11.363Z,15.48
2022-09-27T01:52:13.228Z,14.88
2022-09-27T01:53:20.497Z,14.80
2022-09-27T01:54:27.685Z,14.65
2022-09-27T01:55:31.228Z,16.30
2022-09-27T01:56:48.485Z,14.50
2022-09-27T01:58:29.414Z,14.67
2022-09-27T01:59:34.182Z,14.32
2022-09-27T02:00:36.075Z,13.68
2022-09-27T02:01:38.621Z,14.52
2022-09-27T02:02:44.851Z,14.82
2022-09-27T02:03:48.333Z,16.92
2022-09-27T02:04:49.939Z,14.77
2022-09-27T02:06:08.027Z,16.10
2022-09-27T02:07:20.955Z,15.73
2022-09-27T02:08:49.169Z,16.60
2022-09-27T02:09:54.326Z,16.87
2022-09-27T02:10:56.328Z,17.17
2022-09-27T02:12:06.172Z,20.55
2022-09-27T02:13:21.294Z,18.92
2022-09-27T02:14:25.767Z,20.73
2022-09-27T02:15:27.848Z,20.70
2022-09-27T02:16:33.916Z,20.77
2022-09-27T02:17:45.236Z,20.52
2022-09-27T02:19:08.674Z,20.80
2022-09-27T02:20:13.275Z,22.10
2022-09-27T02:21:15.107Z,22.47
2022-09-27T02:22:25.254Z,22.02
2022-09-27T02:23:32.796Z,22.90
2022-09-27T02:25:01.544Z,23.40
2022-09-27T02:26:05.117Z,23.23
2022-09-27T02:27:18.717Z,22.40
2022-09-27T02:28:28.097Z,23.30
2022-09-27T02:29:35.131Z,23.20
2022-09-27T02:30:36.715Z,21.77
2022-09-27T02:31:38.385Z,24.83
2022-09-27T02:32:39.946Z,27.43
2022-09-27T02:33:45.521Z,25.55
2022-09-27T02:34:47.420Z,25.83
2022-09-27T02:35:48.988Z,24.10
2022-09-27T02:36:53.479Z,28.25
2022-09-27T02:37:55.436Z,27.65
2022-09-27T02:38:57.068Z,26.42
2022-09-27T02:39:58.767Z,28.70
2022-09-27T02:41:00.445Z,25.50
2022-09-27T02:42:02.271Z,25.58
2022-09-27T02:43:04.486Z,24.23
2022-09-27T02:44:08.144Z,23.80
2022-09-27T02:45:10.071Z,24.42
2022-09-27T02:46:27.049Z,24.08
2022-09-27T02:47:37.706Z,23.02
2022-09-27T02:48:58.905Z,21.60
2022-09-27T02:50:23.992Z,21.33
2022-09-27T02:51:31.646Z,21.23
2022-09-27T02:52:50.543Z,19.73
2022-09-27T02:54:16.932Z,19.48
2022-09-27T02:55:20.818Z,17.57
2022-09-27T02:57:01.852Z,18.10
2022-09-27T02:58:10.447Z,17.42
2022-09-27T02:59:20.895Z,17.90
2022-09-27T03:00:30.329Z,17.30
2022-09-27T03:01:42.944Z,16.67
2022-09-27T03:02:55.764Z,16.27
2022-09-27T03:04:10.756Z,16.20
2022-09-27T03:05:16.072Z,16.33
2022-09-27T03:06:18.386Z,16.38
2022-09-27T03:07:19.988Z,15.77
2022-09-27T03:08:21.553Z,16.13
2022-09-27T03:09:24.701Z,16.20
2022-09-27T03:10:27.854Z,16.50
2022-09-27T03:11:29.415Z,15.52
2022-09-27T03:12:31.033Z,16.52
2022-09-27T03:13:41.873Z,16.45
2022-09-27T03:14:59.015Z,15.48
2022-09-27T03:16:01.751Z,16.25
2022-09-27T03:17:03.773Z,15.55
2022-09-27T03:18:05.556Z,15.83
2022-09-27T03:19:07.169Z,15.55
2022-09-27T03:20:09.185Z,16.02
2022-09-27T03:21:10.756Z,15.98
2022-09-27T03:22:12.310Z,15.73
2022-09-27T03:23:13.956Z,15.82
2022-09-27T03:24:15.510Z,16.52
2022-09-27T03:25:17.187Z,15.88
2022-09-27T03:26:18.811Z,15.10
2022-09-27T03:27:20.409Z,14.95
2022-09-27T03:28:22.199Z,15.47
2022-09-27T03:29:24.076Z,15.55
2022-09-27T03:30:25.709Z,14.32
2022-09-27T03:31:27.370Z,15.98
2022-09-27T03:32:29.085Z,16.50
2022-09-27T03:33:31.334Z,16.25
2022-09-27T03:34:32.890Z,15.82
2022-09-27T03:35:34.558Z,17.70
2022-09-27T03:36:36.150Z,19.50
2022-09-27T03:37:37.934Z,18.42
2022-09-27T03:38:39.536Z,23.87
2022-09-27T03:39:41.115Z,20.85
2022-09-27T03:40:42.829Z,20.08
2022-09-27T03:41:44.507Z,19.95
2022-09-27T03:42:49.677Z,20.63
2022-09-27T03:43:51.474Z,19.95
2022-09-27T03:44:53.101Z,20.52
2022-09-27T03:45:54.796Z,20.52
2022-09-27T03:46:57.378Z,20.15
2022-09-27T03:47:58.962Z,21.52
2022-09-27T03:49:00.580Z,24.63
2022-09-27T03:50:02.425Z,22.40
2022-09-27T03:51:04.689Z,24.65
2022-09-27T03:52:06.316Z,22.30
2022-09-27T03:53:08.014Z,22.05
2022-09-27T03:54:10.031Z,22.10
2022-09-27T03:55:12.009Z,21.92
2022-09-27T03:56:14.064Z,26.73
2022-09-27T03:57:15.621Z,22.85
2022-09-27T03:58:17.189Z,23.63
2022-09-27T03:59:19.378Z,24.30
2022-09-27T04:00:21.599Z,25.38
2022-09-27T04:01:23.338Z,23.45
2022-09-27T04:02:24.970Z,23.70
2022-09-27T04:03:27.138Z,22.88
2022-09-27T04:04:29.129Z,25.30
2022-09-27T04:05:30.715Z,23.50
2022-09-27T04:06:32.391Z,24.17
2022-09-27T04:07:34.447Z,22.77
2022-09-27T04:08:36.630Z,23.52
2022-09-27T04:09:41.177Z,25.63
2022-09-27T04:10:46.125Z,24.42
2022-09-27T04:11:49.145Z,23.65
2022-09-27T04:12:50.747Z,23.27
2022-09-27T04:13:52.334Z,24.77
2022-09-27T04:14:55.285Z,23.08
2022-09-27T04:15:56.905Z,24.33
2022-09-27T04:16:58.518Z,23.17
2022-09-27T04:18:00.150Z,23.98
2022-09-27T04:19:02.546Z,23.45
2022-09-27T04:20:04.364Z,22.80
2022-09-27T04:21:06.015Z,24.50
2022-09-27T04:22:08.159Z,23.75
2022-09-27T04:23:09.776Z,24.52
2022-09-27T04:24:12.151Z,23.83
2022-09-27T04:25:14.061Z,25.08
2022-09-27T04:26:16.418Z,25.52
2022-09-27T04:27:17.970Z,26.50
2022-09-27T04:28:19.620Z,26.23
2022-09-27T04:29:22.167Z,23.77
2022-09-27T04:30:23.728Z,24.87
2022-09-27T04:31:25.433Z,24.23
2022-09-27T04:32:27.050Z,25.95
2022-09-27T04:33:28.619Z,26.95
2022-09-27T04:34:48.469Z,26.08
2022-09-27T04:36:08.429Z,26.20
2022-09-27T04:37:11.595Z,24.15
2022-09-27T04:38:14.401Z,24.83
2022-09-27T04:39:16.085Z,24.73
2022-09-27T04:40:17.950Z,25.70
2022-09-27T04:41:19.841Z,26.57
2022-09-27T04:42:21.496Z,26.80
2022-09-27T04:43:23.080Z,24.65
2022-09-27T04:44:24.655Z,25.42
2022-09-27T04:45:26.297Z,23.10
2022-09-27T04:46:31.810Z,24.42
2022-09-27T04:47:34.190Z,25.00
2022-09-27T04:48:35.919Z,30.42
2022-09-27T04:49:38.883Z,34.72
2022-09-27T04:50:41.318Z,30.27
2022-09-27T04:51:42.962Z,29.50
2022-09-27T04:52:44.567Z,33.03
2022-09-27T04:53:46.414Z,35.58
2022-09-27T04:54:48.011Z,36.17
2022-09-27T04:55:50.145Z,40.28
2022-09-27T04:56:51.810Z,34.80
2022-09-27T04:57:53.428Z,28.48
2022-09-27T04:58:55.051Z,29.63
2022-09-27T04:59:59.146Z,29.77
2022-09-27T05:01:02.796Z,26.15
2022-09-27T05:02:05.259Z,25.13
2022-09-27T05:03:07.314Z,26.05
2022-09-27T05:04:08.886Z,25.20
2022-09-27T05:05:10.614Z,26.27
2022-09-27T05:06:12.212Z,29.30
2022-09-27T05:07:13.944Z,28.17
2022-09-27T05:08:15.585Z,33.78
2022-09-27T05:09:17.167Z,35.38
2022-09-27T05:10:18.834Z,39.47
2022-09-27T05:11:20.464Z,43.63
2022-09-27T05:12:22.104Z,41.90
2022-09-27T05:13:23.709Z,40.03
2022-09-27T05:15:28.196Z,36.25
2022-09-27T05:16:32.115Z,38.97
2022-09-27T05:17:35.634Z,36.83
2022-09-27T05:18:37.238Z,27.33
2022-09-27T05:19:39.659Z,30.67
2022-09-27T05:20:41.837Z,29.10
2022-09-27T05:21:43.825Z,28.20
2022-09-27T05:22:45.726Z,27.20
2022-09-27T05:23:48.047Z,28.10
2022-09-27T05:24:49.863Z,27.77
2022-09-27T05:25:52.508Z,28.40
2022-09-27T05:26:56.818Z,28.13
2022-09-27T05:27:58.561Z,26.60
2022-09-27T05:29:00.214Z,30.25
2022-09-27T05:30:02.046Z,31.80
2022-09-27T05:31:03.827Z,28.45
2022-09-27T05:32:05.413Z,28.45
2022-09-27T05:33:06.978Z,26.47
2022-09-27T05:34:10.856Z,28.50
2022-09-27T05:35:12.465Z,29.27
2022-09-27T05:36:14.203Z,29.55
2022-09-27T05:37:15.910Z,30.20
2022-09-27T05:38:17.524Z,29.88
2022-09-27T05:39:19.243Z,28.75
2022-09-27T05:40:40.355Z,30.65
2022-09-27T05:41:46.247Z,27.80
2022-09-27T05:42:48.195Z,28.40
2022-09-27T05:43:49.822Z,30.57
2022-09-27T05:44:51.487Z,30.20
2022-09-27T05:45:53.435Z,30.63
2022-09-27T05:46:55.133Z,29.60
2022-09-27T05:47:57.278Z,28.80
2022-09-27T05:48:59.031Z,30.25
2022-09-27T05:50:00.628Z,31.42
2022-09-27T05:51:02.216Z,29.30
2022-09-27T05:52:03.782Z,31.30
2022-09-27T05:53:05.496Z,31.65
2022-09-27T05:54:07.081Z,31.17
2022-09-27T05:55:08.824Z,31.00
2022-09-27T05:56:10.418Z,30.20
2022-09-27T05:57:11.979Z,28.65
2022-09-27T05:58:16.320Z,30.90
2022-09-27T05:59:18.040Z,30.13
2022-09-27T06:00:19.704Z,30.70
2022-09-27T06:01:21.383Z,32.20
2022-09-27T06:02:23.139Z,30.85
2022-09-27T06:03:24.840Z,30.65
2022-09-27T06:04:26.420Z,29.73
2022-09-27T06:05:30.629Z,28.50
2022-09-27T06:06:34.329Z,29.23
2022-09-27T06:07:35.926Z,30.65
2022-09-27T06:08:38.570Z,31.25
2022-09-27T06:09:40.119Z,33.20
2022-09-27T06:10:41.879Z,30.80
2022-09-27T06:11:45.603Z,30.20
2022-09-27T06:12:47.231Z,28.80
2022-09-27T06:13:48.838Z,30.50
2022-09-27T06:14:50.422Z,31.50
2022-09-27T06:15:52.914Z,30.02
2022-09-27T06:16:55.207Z,28.40
2022-09-27T06:17:56.851Z,29.08
2022-09-27T06:18:58.461Z,29.48
2022-09-27T06:20:00.522Z,29.75
2022-09-27T06:21:03.774Z,29.17
2022-09-27T06:22:05.372Z,28.02
2022-09-27T06:23:12.512Z,29.80
2022-09-27T06:24:14.074Z,28.08
2022-09-27T06:25:15.718Z,31.92
2022-09-27T06:26:17.282Z,28.10
2022-09-27T06:27:19.137Z,28.92
2022-09-27T06:28:21.355Z,29.27
2022-09-27T06:29:23.160Z,29.23
2022-09-27T06:30:24.737Z,27.70
2022-09-27T06:31:26.310Z,27.17
2022-09-27T06:32:27.970Z,28.80
2022-09-27T06:33:29.588Z,28.25
2022-09-27T06:34:32.453Z,26.92
2022-09-27T06:35:35.341Z,26.83
2022-09-27T06:36:36.944Z,28.47
2022-09-27T06:37:38.604Z,29.15
2022-09-27T06:38:40.169Z,27.25
2022-09-27T06:39:42.525Z,28.48
2022-09-27T06:40:47.449Z,31.42
2022-09-27T06:41:49.043Z,29.98
2022-09-27T06:42:50.612Z,26.42
2022-09-27T06:43:52.174Z,26.27
2022-09-27T06:44:54.435Z,24.95
2022-09-27T06:45:56.161Z,25.20
2022-09-27T06:46:57.722Z,22.93
2022-09-27T06:48:02.539Z,21.77
2022-09-27T06:49:04.128Z,22.38
2022-09-27T06:50:06.769Z,21.90
2022-09-27T06:51:08.353Z,20.88
2022-09-27T06:52:10.504Z,19.98
2022-09-27T06:53:13.271Z,20.75
2022-09-27T06:54:15.103Z,21.85
2022-09-27T06:55:16.894Z,19.58
2022-09-27T06:56:18.529Z,20.38
2022-09-27T06:57:40.031Z,19.93
2022-09-27T06:58:59.960Z,20.67
2022-09-27T07:00:20.905Z,20.88
2022-09-27T07:01:22.560Z,21.73
2022-09-27T07:02:25.172Z,21.20
2022-09-27T07:03:35.354Z,21.52
2022-09-27T07:04:39.431Z,21.25
2022-09-27T07:05:44.639Z,23.58
2022-09-27T07:06:46.196Z,20.45
2022-09-27T07:07:51.361Z,22.98
2022-09-27T07:08:53.458Z,22.83
2022-09-27T07:09:55.035Z,23.30
2022-09-27T07:11:01.064Z,21.58
2022-09-27T07:12:02.660Z,22.88
2022-09-27T07:13:08.198Z,24.30
2022-09-27T07:14:10.509Z,21.38
2022-09-27T07:15:12.666Z,22.20
2022-09-27T07:16:14.636Z,22.60
2022-09-27T07:17:16.288Z,22.20
2022-09-27T07:18:17.876Z,22.00
2022-09-27T07:19:19.451Z,21.47
2022-09-27T07:20:21.193Z,22.13
2022-09-27T07:21:23.664Z,23.65
2022-09-27T07:22:25.258Z,24.85
2022-09-27T07:23:26.948Z,24.35
2022-09-27T07:24:28.510Z,24.15
2022-09-27T07:25:31.165Z,23.80
2022-09-27T07:26:33.065Z,24.00
2022-09-27T07:27:38.398Z,23.77
2022-09-27T07:28:41.588Z,25.33
2022-09-27T07:29:43.398Z,24.27
2022-09-27T07:30:45.135Z,23.17
2022-09-27T07:31:46.756Z,23.13
2022-09-27T07:32:48.299Z,24.05
2022-09-27T07:33:50.307Z,24.08
2022-09-27T07:34:51.889Z,25.77
2022-09-27T07:35:53.506Z,25.85
2022-09-27T07:36:59.680Z,26.15
2022-09-27T07:38:01.283Z,27.02
2022-09-27T07:39:02.883Z,27.08
2022-09-27T07:40:09.367Z,25.70
2022-09-27T07:41:14.832Z,25.67
2022-09-27T07:42:16.491Z,24.95
2022-09-27T07:43:19.555Z,26.42
2022-09-27T07:44:21.126Z,25.58
2022-09-27T07:45:23.397Z,24.88
2022-09-27T07:46:26.131Z,26.40
2022-09-27T07:47:27.772Z,25.60
2022-09-27T07:48:29.380Z,26.52
2022-09-27T07:49:30.980Z,26.85
2022-09-27T07:50:32.761Z,26.73
2022-09-27T07:51:34.381Z,25.52
2022-09-27T07:52:46.231Z,26.88
2022-09-27T07:53:47.800Z,27.30
2022-09-27T07:54:49.375Z,26.85
2022-09-27T07:55:53.228Z,28.52
2022-09-27T07:56:56.584Z,28.17
2022-09-27T07:58:05.544Z,27.38
2022-09-27T07:59:07.087Z,27.60
2022-09-27T08:00:10.624Z,27.42
2022-09-27T08:01:12.572Z,25.07
2022-09-27T08:02:15.376Z,25.05
2022-09-27T08:03:17.664Z,26.67
2022-09-27T08:04:19.235Z,27.58
2022-09-27T08:05:20.820Z,26.58
2022-09-27T08:06:22.547Z,26.65
2022-09-27T08:07:24.231Z,26.30
2022-09-27T08:08:25.914Z,27.52
2022-09-27T08:09:27.555Z,27.58
2022-09-27T08:10:31.502Z,28.77
2022-09-27T08:11:33.144Z,27.53
2022-09-27T08:12:34.913Z,28.00
2022-09-27T08:13:37.750Z,27.00
2022-09-27T08:14:43.986Z,29.35
2022-09-27T08:15:49.004Z,31.73
2022-09-27T08:16:51.527Z,31.50
2022-09-27T08:17:53.613Z,29.60
2022-09-27T08:18:55.398Z,30.60
2022-09-27T08:19:57.113Z,30.90
2022-09-27T08:20:59.521Z,28.60
2022-09-27T08:22:01.098Z,29.57
2022-09-27T08:23:04.445Z,33.10
2022-09-27T08:24:06.640Z,27.40
2022-09-27T08:25:08.749Z,34.50
2022-09-27T08:26:10.364Z,30.35
2022-09-27T08:27:12.886Z,29.75
2022-09-27T08:28:14.529Z,30.67
2022-09-27T08:29:16.974Z,28.20
2022-09-27T08:30:18.665Z,26.30
2022-09-27T08:31:20.294Z,27.50
2022-09-27T08:32:23.493Z,26.43
2022-09-27T08:33:31.265Z,26.60
2022-09-27T08:34:34.357Z,28.25
2022-09-27T08:35:36.249Z,27.02
2022-09-27T08:36:37.862Z,28.80
2022-09-27T08:37:39.426Z,28.45
2022-09-27T08:38:41.011Z,29.50
2022-09-27T08:39:47.033Z,28.35
2022-09-27T08:40:57.052Z,29.80
2022-09-27T08:42:06.698Z,31.73
2022-09-27T08:43:32.164Z,28.27
2022-09-27T08:45:09.170Z,25.92
2022-09-27T08:46:49.054Z,24.25
2022-09-27T08:47:55.988Z,24.25
2022-09-27T08:49:13.206Z,25.17
2022-09-27T08:50:30.822Z,22.60
2022-09-27T08:51:32.494Z,22.77
2022-09-27T08:52:37.761Z,24.45
2022-09-27T08:53:47.103Z,25.65
2022-09-27T08:54:48.649Z,23.10
2022-09-27T08:55:54.832Z,22.47
2022-09-27T08:57:09.771Z,22.08
2022-09-27T08:58:36.523Z,21.92
2022-09-27T08:59:46.197Z,23.20
2022-09-27T09:00:52.033Z,22.40
2022-09-27T09:01:53.770Z,22.63
2022-09-27T09:03:00.123Z,22.05
2022-09-27T09:04:04.267Z,21.50
2022-09-27T09:05:11.891Z,21.88
2022-09-27T09:06:24.312Z,22.23
2022-09-27T09:07:47.482Z,22.80
2022-09-27T09:09:16.282Z,21.67
2022-09-27T09:11:01.047Z,23.17
2022-09-27T09:12:44.553Z,22.73
2022-09-27T09:13:51.883Z,22.88
2022-09-27T09:15:05.597Z,23.23
2022-09-27T09:16:07.280Z,23.98
2022-09-27T09:17:27.068Z,24.67
2022-09-27T09:18:34.898Z,20.92
2022-09-27T09:20:00.823Z,21.10
2022-09-27T09:21:14.454Z,21.00
2022-09-27T09:22:28.815Z,21.30
2022-09-27T09:23:37.724Z,22.25
2022-09-27T09:25:07.351Z,22.30
2022-09-27T09:26:25.107Z,22.75
2022-09-27T09:27:33.598Z,22.40
2022-09-27T09:28:53.685Z,21.30
2022-09-27T09:30:25.155Z,22.63
2022-09-27T09:31:43.993Z,22.63
2022-09-27T09:33:06.746Z,22.02
2022-09-27T09:34:36.946Z,22.50
2022-09-27T09:35:45.438Z,22.95
2022-09-27T09:36:47.015Z,21.30
2022-09-27T09:37:50.918Z,21.13
2022-09-27T09:39:04.441Z,21.23
2022-09-27T09:40:43.555Z,22.08
2022-09-27T09:41:47.939Z,21.02
2022-09-27T09:43:09.705Z,20.88
2022-09-27T09:44:21.293Z,22.50
2022-09-27T09:45:24.527Z,21.25
2022-09-27T09:46:36.761Z,21.57
2022-09-27T09:47:54.660Z,18.98
2022-09-27T09:49:07.496Z,20.20
2022-09-27T09:50:18.568Z,21.80
2022-09-27T09:51:22.717Z,19.55
2022-09-27T09:52:25.146Z,20.45
2022-09-27T09:53:32.796Z,21.15
2022-09-27T09:55:17.887Z,21.83
2022-09-27T09:56:28.307Z,19.10
2022-09-27T09:58:01.639Z,19.75
2022-09-27T09:59:05.129Z,18.17
2022-09-27T10:00:17.216Z,20.20
2022-09-27T10:01:22.296Z,20.13
2022-09-27T10:02:31.649Z,21.58
2022-09-27T10:03:33.240Z,21.27
2022-09-27T10:04:34.919Z,21.33
2022-09-27T10:05:36.719Z,19.45
2022-09-27T10:06:38.303Z,21.10
2022-09-27T10:07:39.838Z,19.60
2022-09-27T10:08:41.457Z,21.50
2022-09-27T10:09:43.010Z,17.57
2022-09-27T10:10:44.677Z,18.50
2022-09-27T10:11:46.364Z,17.27
2022-09-27T10:12:48.134Z,17.27
2022-09-27T10:13:49.767Z,16.15
2022-09-27T10:14:51.702Z,17.00
2022-09-27T10:16:04.369Z,17.40
2022-09-27T10:17:10.211Z,16.90
2022-09-27T10:18:17.608Z,16.48
2022-09-27T10:19:26.422Z,17.27
2022-09-27T10:20:39.116Z,17.73
2022-09-27T10:21:42.658Z,16.85
2022-09-27T10:22:47.589Z,17.83
2022-09-27T10:24:04.726Z,17.15
2022-09-27T10:25:08.148Z,16.35
2022-09-27T10:26:10.939Z,17.25
2022-09-27T10:27:12.498Z,16.90
2022-09-27T10:28:34.625Z,16.50
2022-09-27T10:29:38.161Z,15.55
2022-09-27T10:30:39.951Z,16.48
2022-09-27T10:31:46.181Z,16.50
2022-09-27T10:32:47.938Z,16.20
2022-09-27T10:33:58.099Z,19.73
2022-09-27T10:35:30.532Z,27.13
2022-09-27T10:36:34.507Z,16.25
2022-09-27T10:37:36.151Z,16.45
2022-09-27T10:38:37.715Z,16.10
2022-09-27T10:39:42.345Z,15.95
2022-09-27T10:40:44.242Z,15.85
2022-09-27T10:41:46.051Z,17.30
2022-09-27T10:42:47.648Z,17.50
2022-09-27T10:43:49.268Z,16.02
2022-09-27T10:44:51.146Z,17.13
2022-09-27T10:46:23.456Z,17.38
2022-09-27T10:47:26.483Z,16.52
2022-09-27T10:48:28.060Z,16.70
2022-09-27T10:49:33.886Z,18.40
2022-09-27T10:50:50.158Z,18.00
2022-09-27T10:51:57.284Z,16.45
2022-09-27T10:53:14.992Z,18.10
2022-09-27T10:54:23.957Z,17.27
2022-09-27T10:55:26.075Z,16.50
2022-09-27T10:56:30.050Z,16.75
2022-09-27T10:57:31.860Z,17.85
2022-09-27T10:58:37.377Z,18.15
2022-09-27T10:59:40.140Z,18.50
2022-09-27T11:00:41.710Z,16.67
2022-09-27T11:01:50.337Z,19.83
2022-09-27T11:02:53.268Z,18.63
2022-09-27T11:03:56.114Z,18.95
2022-09-27T11:05:16.093Z,18.20
2022-09-27T11:06:30.429Z,17.75
2022-09-27T11:07:32.054Z,18.23
2022-09-27T11:08:33.867Z,18.15
2022-09-27T11:09:45.598Z,18.88
2022-09-27T11:11:13.585Z,17.63
2022-09-27T11:12:15.211Z,17.05
2022-09-27T11:13:18.906Z,16.88
2022-09-27T11:14:22.235Z,17.15
2022-09-27T11:15:24.731Z,17.43
2022-09-27T11:16:46.924Z,16.77
2022-09-27T11:18:03.511Z,16.80
2022-09-27T11:19:36.280Z,15.73
2022-09-27T11:20:41.947Z,14.73
2022-09-27T11:21:58.396Z,14.60
2022-09-27T11:23:23.423Z,14.70
2022-09-27T11:24:34.991Z,14.65
2022-09-27T11:25:46.179Z,15.80
2022-09-27T11:27:21.743Z,15.63
2022-09-27T11:28:35.395Z,13.17
2022-09-27T11:29:45.243Z,12.38
2022-09-27T11:30:50.640Z,11.25
2022-09-27T11:32:04.995Z,10.73
2022-09-27T11:33:18.763Z,10.07
2022-09-27T11:34:32.732Z,10.45
2022-09-27T11:35:57.122Z,10.73
2022-09-27T11:37:01.692Z,10.40
2022-09-27T11:38:34.686Z,10.27
2022-09-27T11:39:57.515Z,10.02
2022-09-27T11:41:23.793Z,10.57
2022-09-27T11:42:40.545Z,10.02
2022-09-27T11:44:02.887Z,11.02
2022-09-27T11:45:37.269Z,10.50
2022-09-27T11:46:41.335Z,10.77
2022-09-27T11:48:07.578Z,10.75
2022-09-27T11:49:28.356Z,10.65
2022-09-27T11:51:02.547Z,10.48
2022-09-27T11:52:12.591Z,10.52
2022-09-27T11:53:21.086Z,10.13
2022-09-27T11:54:39.310Z,11.33
2022-09-27T11:55:53.161Z,10.80
2022-09-27T11:57:03.335Z,11.48
2022-09-27T11:58:11.080Z,11.60
2022-09-27T11:59:53.810Z,11.98
2022-09-27T12:01:14.044Z,11.05
2022-09-27T12:02:39.484Z,10.32
2022-09-27T12:03:54.392Z,11.05
2022-09-27T12:04:58.773Z,10.93
2022-09-27T12:06:20.222Z,11.27
2022-09-27T12:07:32.108Z,10.60
2022-09-27T12:09:02.746Z,11.63
2022-09-27T12:10:09.742Z,11.98
2022-09-27T12:11:20.313Z,11.57
2022-09-27T12:12:24.080Z,11.50
2022-09-27T12:13:41.239Z,12.40
2022-09-27T12:14:47.555Z,12.73
2022-09-27T12:15:49.219Z,13.25
2022-09-27T12:16:51.792Z,13.35
2022-09-27T12:17:55.709Z,12.75
2022-09-27T12:18:57.275Z,12.83
2022-09-27T12:20:00.135Z,11.85
2022-09-27T12:21:03.033Z,11.60
2022-09-27T12:22:06.229Z,11.90
2022-09-27T12:23:12.141Z,11.45
2022-09-27T12:24:20.659Z,11.20
2022-09-27T12:25:22.256Z,10.30
2022-09-27T12:26:29.558Z,10.38
2022-09-27T12:27:36.148Z,9.50
2022-09-27T12:28:54.279Z,10.10
2022-09-27T12:29:56.377Z,8.57
2022-09-27T12:32:33.977Z,9.23
2022-09-27T12:33:39.483Z,9.00
2022-09-27T12:35:05.139Z,9.32
2022-09-27T12:36:08.688Z,8.88
2022-09-27T12:37:17.079Z,9.27
2022-09-27T12:38:42.732Z,8.75
2022-09-27T12:39:48.020Z,7.90
2022-09-27T12:40:53.721Z,8.32
2022-09-27T12:42:02.366Z,7.90
2022-09-27T12:43:09.193Z,7.97
2022-09-27T12:44:11.866Z,8.70
2022-09-27T12:45:15.040Z,8.82
2022-09-27T12:46:45.462Z,8.93
2022-09-27T12:48:08.644Z,8.52
2022-09-27T12:49:38.750Z,9.10
2022-09-27T12:50:45.002Z,9.10
2022-09-27T12:51:48.135Z,8.82
2022-09-27T12:52:54.897Z,9.95
2022-09-27T12:53:59.496Z,9.93
2022-09-27T12:55:20.132Z,10.15
2022-09-27T12:56:47.084Z,9.32
2022-09-27T12:58:14.003Z,10.25
2022-09-27T12:59:40.727Z,9.73
2022-09-27T13:00:47.327Z,9.45
2022-09-27T13:02:21.178Z,9.82
2022-09-27T13:03:32.444Z,10.93
2022-09-27T13:05:16.515Z,10.20
2022-09-27T13:06:36.226Z,10.60
2022-09-27T13:07:37.748Z,9.87
2022-09-27T13:09:24.526Z,10.43
2022-09-27T13:10:46.226Z,9.13
2022-09-27T13:12:01.397Z,9.18
2022-09-27T13:13:04.681Z,8.80
2022-09-27T13:14:06.434Z,8.65
2022-09-27T13:15:15.293Z,7.95
2022-09-27T13:16:16.911Z,8.82
2022-09-27T13:17:46.258Z,7.80
2022-09-27T13:18:47.855Z,6.68
2022-09-27T13:19:49.431Z,6.27
2022-09-27T13:20:51.703Z,7.05
2022-09-27T13:21:54.808Z,6.45
2022-09-27T13:22:57.684Z,6.95
2022-09-27T13:23:59.375Z,7.20
2022-09-27T13:25:01.020Z,7.97
2022-09-27T13:26:04.076Z,7.88
2022-09-27T13:27:23.719Z,8.07
2022-09-27T13:28:35.805Z,7.07
2022-09-27T13:29:37.513Z,5.78
2022-09-27T13:30:39.079Z,5.93
2022-09-27T13:31:58.830Z,5.68
2022-09-27T13:33:09.291Z,5.35
2022-09-27T13:34:59.939Z,5.53
2022-09-27T13:36:16.573Z,6.13
2022-09-27T13:37:36.942Z,6.03
2022-09-27T13:38:38.662Z,5.45
2022-09-27T13:39:40.278Z,3.63
2022-09-27T13:40:42.984Z,2.47
2022-09-27T13:41:48.856Z,2.28
2022-09-27T13:43:11.558Z,3.40
2022-09-27T13:44:20.334Z,2.20
2022-09-27T13:45:34.210Z,1.40
2022-09-27T13:46:37.073Z,1.17
2022-09-27T13:47:40.650Z,1.30
2022-09-27T13:48:47.855Z,0.88
2022-09-27T13:49:49.470Z,1.33
2022-09-27T13:51:14.264Z,0.95
2022-09-27T13:52:36.191Z,1.50
2022-09-27T13:53:40.817Z,1.27
2022-09-27T13:54:58.550Z,1.87
2022-09-27T13:56:00.330Z,2.95
2022-09-27T13:57:02.012Z,1.70
2022-09-27T13:58:05.859Z,3.53
2022-09-27T13:59:09.425Z,4.07
2022-09-27T14:00:22.554Z,2.90
2022-09-27T14:01:34.220Z,1.08
2022-09-27T14:02:42.140Z,1.00
2022-09-27T14:03:43.751Z,0.50
2022-09-27T14:04:50.076Z,1.08
2022-09-27T14:05:53.846Z,1.30
2022-09-27T14:06:57.526Z,1.08
2022-09-27T14:07:59.971Z,1.23
2022-09-27T14:09:06.475Z,1.95
2022-09-27T14:10:13.067Z,0.70
2022-09-27T14:11:17.446Z,1.10
2022-09-27T14:12:22.211Z,0.50
2022-09-27T14:13:24.438Z,0.88
2022-09-27T14:14:28.374Z,0.98
2022-09-27T14:15:31.425Z,1.00
2022-09-27T14:16:36.060Z,0.60
2022-09-27T14:17:45.908Z,0.75
2022-09-27T14:18:53.956Z,0.40
2022-09-27T14:19:56.085Z,0.70
2022-09-27T14:21:16.362Z,0.90
2022-09-27T14:22:19.293Z,0.60
2022-09-27T14:23:24.834Z,0.70
2022-09-27T14:24:43.761Z,0.30
2022-09-27T14:25:47.312Z,1.88
2022-09-27T14:27:09.597Z,0.80
2022-09-27T14:28:28.224Z,1.17
2022-09-27T14:29:31.767Z,1.63
2022-09-27T14:30:33.409Z,1.23
2022-09-27T14:31:35.061Z,1.20
2022-09-27T14:32:51.185Z,1.90
2022-09-27T14:34:08.850Z,1.60